Aérodrome :
LOGIN :

S'inscrire | Disclaimer

   EN    FR    IT 

 










Légende :    VFR   VFR Marginal   IFR   IFR Intensif   IFR Très Intensif
Visi : 
Plafond : 
>= 8 km
>= 3000ft
5 à 8 km
1000 à 3000 ft
1500m à 5 km
500 à 1000 ft
800 à 1500m
200 à 500 ft
< 800m
< 200 ft
Symboles :   Orages  Brouillard  Fortes neiges  Fortes précipitations  Vent > 20 kt
SIGMETs :   Divers  Orages  Givrage  Turbulence  Onde Orograph.  Cendres Volcan.







- Altitude de l'aérodrome : 505 ft
- Code IATA : SXB
- Voir les cartes d'approche


LFST - Strasbourg

DERNIER METAR :
  • 211500Z AUTO 15004KT 110V190 9999 FEW020/// BKN100/// ///CB 22/18 Q1013 NOSIG

METARs EXPIRÉS :
  • 211430Z AUTO 10003KT 070V170 9999 ///CB 22/18 Q1013 NOSIG
  • 211400Z AUTO VRB03KT 9999 FEW011/// SCT076/// BKN100/// ///TCU 22/19 Q1013 TEMPO FEW035CB
  • 211330Z AUTO VRB02KT 9999 -RA FEW013 SCT033 BKN110 22/18 Q1013 TEMPO FEW035CB
  • 211300Z AUTO VRB02KT 9999 FEW012/// SCT049/// BKN098/// ///TCU 22/19 Q1013 TEMPO FEW035CB
  • 211230Z AUTO 36003KT 330V030 9999 FEW015/// SCT047/// OVC098/// ///CB 21/19 Q1013 NOSIG

TAF AMD TAF LFST
Valide du 21 à 12h jusqu'au 22 à 12h UTC


211229Z 2112/2212 20008KT 9999 FEW020 BKN050 BKN100
TEMPO 2112/2121 -SHRA FEW035CB
PROB30
TEMPO 2201/2207 1500 BCFG
BECMG 2208/2211 FEW030CB BKN043
PROB40
TEMPO 2209/2212 4500 SHRA
Pas de NOTAMs connus pour ce terrain.



MET'MAP, la Météo Aéronautique d'un coup d'oeil ! - Copyright ORBIFLY Décembre 2007 - Disclaimer

ORBIFLY MET'MAP TEAM :

Programmation & Développement : Alexandra Zaïnal
Conception & Développement : Baudouin d'Aumeries
Co-Programmation & Développement : Marc-Olivier Méhu
Soutien technique & logistique : Manuel Goepfert

Contact : metmap@orbifly.com




SOURCES & CREDITS :

   NOAA